sensor_id;sensor_type;location;lat;lon;timestamp;P1;durP1;ratioP1;P2;durP2;ratioP2
83728;SDS011;73707;56.480;-2.840;2024-01-27T00:00:24;5.60;;;2.40;;
83728;SDS011;73707;56.480;-2.840;2024-01-27T00:02:50;9.75;;;2.22;;
83728;SDS011;73707;56.480;-2.840;2024-01-27T00:05:17;5.43;;;1.98;;
83728;SDS011;73707;56.480;-2.840;2024-01-27T00:07:42;6.63;;;2.17;;
83728;SDS011;73707;56.480;-2.840;2024-01-27T00:10:08;10.65;;;3.08;;
83728;SDS011;73707;56.480;-2.840;2024-01-27T00:12:34;6.50;;;2.08;;
83728;SDS011;73707;56.480;-2.840;2024-01-27T00:15:01;10.68;;;2.78;;
83728;SDS011;73707;56.480;-2.840;2024-01-27T00:17:27;4.95;;;2.05;;
83728;SDS011;73707;56.480;-2.840;2024-01-27T00:19:53;6.40;;;2.13;;
83728;SDS011;73707;56.480;-2.840;2024-01-27T00:22:19;5.60;;;2.33;;
83728;SDS011;73707;56.480;-2.840;2024-01-27T00:24:48;8.23;;;2.50;;
83728;SDS011;73707;56.480;-2.840;2024-01-27T00:27:14;4.53;;;1.90;;
83728;SDS011;73707;56.480;-2.840;2024-01-27T00:29:40;3.70;;;2.13;;
83728;SDS011;73707;56.480;-2.840;2024-01-27T00:32:05;6.57;;;2.35;;
83728;SDS011;73707;56.480;-2.840;2024-01-27T00:34:31;6.57;;;1.77;;
83728;SDS011;73707;56.480;-2.840;2024-01-27T00:36:56;10.80;;;2.50;;
83728;SDS011;73707;56.480;-2.840;2024-01-27T00:39:22;8.57;;;2.92;;
83728;SDS011;73707;56.480;-2.840;2024-01-27T00:41:48;7.67;;;2.43;;
83728;SDS011;73707;56.480;-2.840;2024-01-27T00:44:13;10.77;;;2.47;;
83728;SDS011;73707;56.480;-2.840;2024-01-27T00:46:39;5.00;;;2.40;;
83728;SDS011;73707;56.480;-2.840;2024-01-27T00:49:05;7.10;;;2.15;;
83728;SDS011;73707;56.480;-2.840;2024-01-27T00:51:31;6.00;;;2.60;;
83728;SDS011;73707;56.480;-2.840;2024-01-27T00:53:57;7.60;;;2.58;;
83728;SDS011;73707;56.480;-2.840;2024-01-27T00:56:22;5.68;;;2.17;;
83728;SDS011;73707;56.480;-2.840;2024-01-27T00:58:48;5.10;;;2.10;;
83728;SDS011;73707;56.480;-2.840;2024-01-27T01:01:14;5.70;;;2.20;;
83728;SDS011;73707;56.480;-2.840;2024-01-27T01:03:40;8.38;;;2.80;;
83728;SDS011;73707;56.480;-2.840;2024-01-27T01:06:05;4.93;;;1.60;;
83728;SDS011;73707;56.480;-2.840;2024-01-27T01:08:31;8.20;;;2.17;;
83728;SDS011;73707;56.480;-2.840;2024-01-27T01:10:57;6.22;;;1.95;;
83728;SDS011;73707;56.480;-2.840;2024-01-27T01:13:23;6.57;;;2.42;;
83728;SDS011;73707;56.480;-2.840;2024-01-27T01:15:48;8.40;;;2.40;;
83728;SDS011;73707;56.480;-2.840;2024-01-27T01:18:14;9.20;;;2.50;;
83728;SDS011;73707;56.480;-2.840;2024-01-27T01:20:40;9.53;;;2.77;;
83728;SDS011;73707;56.480;-2.840;2024-01-27T01:23:05;6.38;;;2.08;;
83728;SDS011;73707;56.480;-2.840;2024-01-27T01:25:31;6.55;;;1.92;;
83728;SDS011;73707;56.480;-2.840;2024-01-27T01:27:57;8.07;;;2.17;;
83728;SDS011;73707;56.480;-2.840;2024-01-27T01:30:22;7.75;;;2.55;;
83728;SDS011;73707;56.480;-2.840;2024-01-27T01:32:48;10.00;;;2.47;;
83728;SDS011;73707;56.480;-2.840;2024-01-27T01:35:15;7.93;;;2.53;;
83728;SDS011;73707;56.480;-2.840;2024-01-27T01:37:40;9.83;;;2.97;;
83728;SDS011;73707;56.480;-2.840;2024-01-27T01:40:06;7.13;;;2.50;;
83728;SDS011;73707;56.480;-2.840;2024-01-27T01:42:32;6.03;;;2.60;;
83728;SDS011;73707;56.480;-2.840;2024-01-27T01:44:58;3.50;;;1.70;;
83728;SDS011;73707;56.480;-2.840;2024-01-27T01:47:24;7.50;;;2.37;;
83728;SDS011;73707;56.480;-2.840;2024-01-27T01:49:50;9.07;;;2.60;;
83728;SDS011;73707;56.480;-2.840;2024-01-27T01:52:17;8.10;;;2.40;;
83728;SDS011;73707;56.480;-2.840;2024-01-27T01:54:51;4.95;;;2.05;;
83728;SDS011;73707;56.480;-2.840;2024-01-27T01:57:17;10.38;;;2.90;;
83728;SDS011;73707;56.480;-2.840;2024-01-27T01:59:43;5.68;;;2.25;;
83728;SDS011;73707;56.480;-2.840;2024-01-27T02:02:09;6.57;;;2.20;;
83728;SDS011;73707;56.480;-2.840;2024-01-27T02:04:44;8.65;;;2.53;;
83728;SDS011;73707;56.480;-2.840;2024-01-27T02:07:13;11.05;;;2.78;;
83728;SDS011;73707;56.480;-2.840;2024-01-27T02:09:39;10.30;;;2.40;;
83728;SDS011;73707;56.480;-2.840;2024-01-27T02:12:05;9.33;;;2.70;;
83728;SDS011;73707;56.480;-2.840;2024-01-27T02:14:31;6.77;;;2.27;;
83728;SDS011;73707;56.480;-2.840;2024-01-27T02:16:57;7.10;;;2.20;;
83728;SDS011;73707;56.480;-2.840;2024-01-27T02:19:23;5.87;;;2.30;;
83728;SDS011;73707;56.480;-2.840;2024-01-27T02:21:49;7.10;;;2.25;;
83728;SDS011;73707;56.480;-2.840;2024-01-27T02:24:15;4.90;;;2.42;;
83728;SDS011;73707;56.480;-2.840;2024-01-27T02:26:40;5.10;;;2.43;;
83728;SDS011;73707;56.480;-2.840;2024-01-27T02:29:06;5.90;;;2.03;;
83728;SDS011;73707;56.480;-2.840;2024-01-27T02:31:32;6.07;;;1.80;;
83728;SDS011;73707;56.480;-2.840;2024-01-27T02:33:58;3.80;;;2.35;;
83728;SDS011;73707;56.480;-2.840;2024-01-27T02:36:23;5.77;;;1.90;;
83728;SDS011;73707;56.480;-2.840;2024-01-27T02:38:49;5.33;;;1.90;;
83728;SDS011;73707;56.480;-2.840;2024-01-27T02:41:14;6.03;;;2.00;;
83728;SDS011;73707;56.480;-2.840;2024-01-27T02:43:40;5.67;;;2.00;;
83728;SDS011;73707;56.480;-2.840;2024-01-27T02:46:08;5.88;;;2.40;;
83728;SDS011;73707;56.480;-2.840;2024-01-27T02:48:44;7.03;;;1.73;;
83728;SDS011;73707;56.480;-2.840;2024-01-27T02:51:10;4.22;;;1.90;;
83728;SDS011;73707;56.480;-2.840;2024-01-27T02:53:36;9.88;;;2.60;;
83728;SDS011;73707;56.480;-2.840;2024-01-27T02:56:01;5.63;;;2.00;;
83728;SDS011;73707;56.480;-2.840;2024-01-27T02:58:27;12.07;;;2.45;;
83728;SDS011;73707;56.480;-2.840;2024-01-27T03:00:53;5.47;;;1.70;;
83728;SDS011;73707;56.480;-2.840;2024-01-27T03:03:18;4.50;;;2.15;;
83728;SDS011;73707;56.480;-2.840;2024-01-27T03:05:44;7.13;;;2.13;;
83728;SDS011;73707;56.480;-2.840;2024-01-27T03:08:10;8.20;;;2.35;;
83728;SDS011;73707;56.480;-2.840;2024-01-27T03:10:36;5.22;;;2.15;;
83728;SDS011;73707;56.480;-2.840;2024-01-27T03:13:01;5.73;;;1.80;;
83728;SDS011;73707;56.480;-2.840;2024-01-27T03:15:27;7.53;;;2.08;;
83728;SDS011;73707;56.480;-2.840;2024-01-27T03:17:53;15.05;;;2.45;;
83728;SDS011;73707;56.480;-2.840;2024-01-27T03:20:19;7.70;;;1.65;;
83728;SDS011;73707;56.480;-2.840;2024-01-27T03:22:44;3.80;;;1.60;;
83728;SDS011;73707;56.480;-2.840;2024-01-27T03:25:10;7.15;;;2.35;;
83728;SDS011;73707;56.480;-2.840;2024-01-27T03:27:36;5.50;;;2.13;;
83728;SDS011;73707;56.480;-2.840;2024-01-27T03:30:02;6.75;;;2.20;;
83728;SDS011;73707;56.480;-2.840;2024-01-27T03:32:28;8.77;;;2.50;;
83728;SDS011;73707;56.480;-2.840;2024-01-27T03:34:57;8.07;;;2.40;;
83728;SDS011;73707;56.480;-2.840;2024-01-27T03:37:23;7.40;;;2.17;;
83728;SDS011;73707;56.480;-2.840;2024-01-27T03:39:49;7.17;;;2.40;;
83728;SDS011;73707;56.480;-2.840;2024-01-27T03:42:15;6.80;;;2.25;;
83728;SDS011;73707;56.480;-2.840;2024-01-27T03:44:40;3.80;;;1.37;;
83728;SDS011;73707;56.480;-2.840;2024-01-27T03:47:06;6.33;;;2.10;;
83728;SDS011;73707;56.480;-2.840;2024-01-27T03:49:32;4.63;;;1.60;;
83728;SDS011;73707;56.480;-2.840;2024-01-27T03:51:57;9.70;;;2.03;;
83728;SDS011;73707;56.480;-2.840;2024-01-27T03:54:23;7.88;;;2.13;;
83728;SDS011;73707;56.480;-2.840;2024-01-27T03:56:48;5.78;;;2.13;;
83728;SDS011;73707;56.480;-2.840;2024-01-27T03:59:14;5.50;;;1.70;;
83728;SDS011;73707;56.480;-2.840;2024-01-27T04:01:40;5.63;;;1.95;;
83728;SDS011;73707;56.480;-2.840;2024-01-27T04:04:05;5.07;;;1.50;;
83728;SDS011;73707;56.480;-2.840;2024-01-27T04:06:40;6.63;;;2.10;;
83728;SDS011;73707;56.480;-2.840;2024-01-27T04:09:06;5.13;;;2.25;;
83728;SDS011;73707;56.480;-2.840;2024-01-27T04:11:36;4.33;;;1.90;;
83728;SDS011;73707;56.480;-2.840;2024-01-27T04:14:03;9.82;;;2.33;;
83728;SDS011;73707;56.480;-2.840;2024-01-27T04:16:29;3.40;;;1.88;;
83728;SDS011;73707;56.480;-2.840;2024-01-27T04:18:55;6.60;;;2.17;;
83728;SDS011;73707;56.480;-2.840;2024-01-27T04:21:21;7.80;;;1.83;;
83728;SDS011;73707;56.480;-2.840;2024-01-27T04:23:47;4.03;;;1.60;;
83728;SDS011;73707;56.480;-2.840;2024-01-27T04:26:14;8.20;;;2.08;;
83728;SDS011;73707;56.480;-2.840;2024-01-27T04:28:39;5.55;;;1.80;;
83728;SDS011;73707;56.480;-2.840;2024-01-27T04:31:05;3.22;;;1.52;;
83728;SDS011;73707;56.480;-2.840;2024-01-27T04:33:31;7.50;;;2.20;;
83728;SDS011;73707;56.480;-2.840;2024-01-27T04:35:57;6.72;;;1.88;;
83728;SDS011;73707;56.480;-2.840;2024-01-27T04:38:22;4.38;;;1.90;;
83728;SDS011;73707;56.480;-2.840;2024-01-27T04:40:49;5.88;;;2.22;;
83728;SDS011;73707;56.480;-2.840;2024-01-27T04:43:16;3.28;;;1.85;;
83728;SDS011;73707;56.480;-2.840;2024-01-27T04:45:43;3.58;;;1.52;;
83728;SDS011;73707;56.480;-2.840;2024-01-27T04:48:09;6.03;;;1.98;;
83728;SDS011;73707;56.480;-2.840;2024-01-27T04:50:34;4.78;;;2.00;;
83728;SDS011;73707;56.480;-2.840;2024-01-27T04:53:01;5.45;;;1.52;;
83728;SDS011;73707;56.480;-2.840;2024-01-27T04:55:27;4.53;;;1.80;;
83728;SDS011;73707;56.480;-2.840;2024-01-27T04:57:53;2.92;;;1.77;;
83728;SDS011;73707;56.480;-2.840;2024-01-27T05:00:18;4.03;;;1.73;;
83728;SDS011;73707;56.480;-2.840;2024-01-27T05:02:45;4.70;;;1.42;;
83728;SDS011;73707;56.480;-2.840;2024-01-27T05:05:11;4.82;;;1.70;;
83728;SDS011;73707;56.480;-2.840;2024-01-27T05:07:40;2.58;;;1.48;;
83728;SDS011;73707;56.480;-2.840;2024-01-27T05:10:05;6.28;;;1.88;;
83728;SDS011;73707;56.480;-2.840;2024-01-27T05:12:31;3.63;;;1.42;;
83728;SDS011;73707;56.480;-2.840;2024-01-27T05:14:57;3.67;;;1.30;;
83728;SDS011;73707;56.480;-2.840;2024-01-27T05:17:23;3.28;;;1.65;;
83728;SDS011;73707;56.480;-2.840;2024-01-27T05:19:51;4.00;;;1.30;;
83728;SDS011;73707;56.480;-2.840;2024-01-27T05:22:17;3.78;;;1.55;;
83728;SDS011;73707;56.480;-2.840;2024-01-27T05:24:44;3.03;;;1.52;;
83728;SDS011;73707;56.480;-2.840;2024-01-27T05:27:10;5.15;;;1.33;;
83728;SDS011;73707;56.480;-2.840;2024-01-27T05:29:39;2.70;;;1.17;;
83728;SDS011;73707;56.480;-2.840;2024-01-27T05:32:04;4.30;;;1.40;;
83728;SDS011;73707;56.480;-2.840;2024-01-27T05:34:30;2.90;;;1.35;;
83728;SDS011;73707;56.480;-2.840;2024-01-27T05:36:56;5.93;;;1.30;;
83728;SDS011;73707;56.480;-2.840;2024-01-27T05:39:21;7.30;;;1.88;;
83728;SDS011;73707;56.480;-2.840;2024-01-27T05:41:47;5.50;;;1.30;;
83728;SDS011;73707;56.480;-2.840;2024-01-27T05:44:13;4.43;;;1.43;;
83728;SDS011;73707;56.480;-2.840;2024-01-27T05:46:38;2.95;;;1.30;;
83728;SDS011;73707;56.480;-2.840;2024-01-27T05:49:04;4.70;;;1.30;;
83728;SDS011;73707;56.480;-2.840;2024-01-27T05:51:30;6.35;;;1.63;;
83728;SDS011;73707;56.480;-2.840;2024-01-27T05:53:55;5.43;;;1.70;;
83728;SDS011;73707;56.480;-2.840;2024-01-27T05:56:21;3.35;;;1.10;;
83728;SDS011;73707;56.480;-2.840;2024-01-27T05:58:47;4.82;;;1.42;;
83728;SDS011;73707;56.480;-2.840;2024-01-27T06:01:13;3.53;;;1.23;;
83728;SDS011;73707;56.480;-2.840;2024-01-27T06:03:42;3.53;;;1.10;;
83728;SDS011;73707;56.480;-2.840;2024-01-27T06:06:08;6.75;;;1.42;;
83728;SDS011;73707;56.480;-2.840;2024-01-27T06:08:34;3.77;;;1.30;;
83728;SDS011;73707;56.480;-2.840;2024-01-27T06:11:00;2.70;;;0.90;;
83728;SDS011;73707;56.480;-2.840;2024-01-27T06:13:26;4.45;;;1.55;;
83728;SDS011;73707;56.480;-2.840;2024-01-27T06:15:52;5.93;;;1.20;;
83728;SDS011;73707;56.480;-2.840;2024-01-27T06:18:17;6.90;;;1.27;;
83728;SDS011;73707;56.480;-2.840;2024-01-27T06:20:43;2.78;;;1.23;;
83728;SDS011;73707;56.480;-2.840;2024-01-27T06:23:09;2.88;;;0.90;;
83728;SDS011;73707;56.480;-2.840;2024-01-27T06:25:35;5.97;;;1.40;;
83728;SDS011;73707;56.480;-2.840;2024-01-27T06:28:00;2.30;;;1.30;;
83728;SDS011;73707;56.480;-2.840;2024-01-27T06:30:26;3.33;;;1.23;;
83728;SDS011;73707;56.480;-2.840;2024-01-27T06:32:52;2.33;;;1.10;;
83728;SDS011;73707;56.480;-2.840;2024-01-27T06:35:17;4.65;;;1.23;;
83728;SDS011;73707;56.480;-2.840;2024-01-27T06:37:43;5.10;;;1.17;;
83728;SDS011;73707;56.480;-2.840;2024-01-27T06:40:09;2.93;;;1.00;;
83728;SDS011;73707;56.480;-2.840;2024-01-27T06:42:35;5.70;;;1.67;;
83728;SDS011;73707;56.480;-2.840;2024-01-27T06:45:01;3.80;;;1.20;;
83728;SDS011;73707;56.480;-2.840;2024-01-27T06:47:27;1.45;;;0.93;;
83728;SDS011;73707;56.480;-2.840;2024-01-27T06:49:54;3.75;;;1.27;;
83728;SDS011;73707;56.480;-2.840;2024-01-27T06:52:19;5.53;;;1.33;;
83728;SDS011;73707;56.480;-2.840;2024-01-27T06:54:45;5.25;;;1.70;;
83728;SDS011;73707;56.480;-2.840;2024-01-27T06:57:17;3.53;;;1.10;;
83728;SDS011;73707;56.480;-2.840;2024-01-27T06:59:47;3.97;;;1.20;;
83728;SDS011;73707;56.480;-2.840;2024-01-27T07:02:18;4.95;;;1.20;;
83728;SDS011;73707;56.480;-2.840;2024-01-27T07:04:53;5.43;;;1.42;;
83728;SDS011;73707;56.480;-2.840;2024-01-27T07:07:23;2.93;;;1.07;;
83728;SDS011;73707;56.480;-2.840;2024-01-27T07:09:54;3.95;;;1.20;;
83728;SDS011;73707;56.480;-2.840;2024-01-27T07:12:20;6.05;;;1.35;;
83728;SDS011;73707;56.480;-2.840;2024-01-27T07:14:46;2.97;;;1.20;;
83728;SDS011;73707;56.480;-2.840;2024-01-27T07:17:12;4.27;;;1.43;;
83728;SDS011;73707;56.480;-2.840;2024-01-27T07:19:38;2.78;;;1.13;;
83728;SDS011;73707;56.480;-2.840;2024-01-27T07:22:04;5.78;;;1.15;;
83728;SDS011;73707;56.480;-2.840;2024-01-27T07:24:30;5.73;;;1.43;;
83728;SDS011;73707;56.480;-2.840;2024-01-27T07:26:55;4.88;;;1.05;;
83728;SDS011;73707;56.480;-2.840;2024-01-27T07:29:23;3.63;;;1.15;;
83728;SDS011;73707;56.480;-2.840;2024-01-27T07:31:49;3.55;;;1.17;;
83728;SDS011;73707;56.480;-2.840;2024-01-27T07:34:15;3.60;;;1.05;;
83728;SDS011;73707;56.480;-2.840;2024-01-27T07:36:40;3.83;;;1.20;;
83728;SDS011;73707;56.480;-2.840;2024-01-27T07:39:06;4.63;;;1.30;;
83728;SDS011;73707;56.480;-2.840;2024-01-27T07:41:32;7.18;;;1.60;;
83728;SDS011;73707;56.480;-2.840;2024-01-27T07:44:06;3.60;;;1.10;;
83728;SDS011;73707;56.480;-2.840;2024-01-27T07:46:34;2.63;;;1.20;;
83728;SDS011;73707;56.480;-2.840;2024-01-27T07:49:01;6.80;;;1.30;;
83728;SDS011;73707;56.480;-2.840;2024-01-27T07:51:28;1.33;;;0.73;;
83728;SDS011;73707;56.480;-2.840;2024-01-27T07:53:53;6.90;;;1.35;;
83728;SDS011;73707;56.480;-2.840;2024-01-27T07:56:19;2.42;;;0.90;;
83728;SDS011;73707;56.480;-2.840;2024-01-27T07:58:45;7.35;;;1.52;;
83728;SDS011;73707;56.480;-2.840;2024-01-27T08:01:14;1.30;;;0.70;;
83728;SDS011;73707;56.480;-2.840;2024-01-27T08:03:43;3.90;;;1.38;;
83728;SDS011;73707;56.480;-2.840;2024-01-27T08:06:19;4.57;;;1.07;;
83728;SDS011;73707;56.480;-2.840;2024-01-27T08:08:47;2.80;;;1.00;;
83728;SDS011;73707;56.480;-2.840;2024-01-27T08:11:14;2.95;;;0.88;;
83728;SDS011;73707;56.480;-2.840;2024-01-27T08:13:40;4.57;;;1.02;;
83728;SDS011;73707;56.480;-2.840;2024-01-27T08:16:07;3.25;;;1.30;;
83728;SDS011;73707;56.480;-2.840;2024-01-27T08:18:35;5.00;;;1.20;;
83728;SDS011;73707;56.480;-2.840;2024-01-27T08:21:02;4.53;;;1.10;;
83728;SDS011;73707;56.480;-2.840;2024-01-27T08:23:28;4.75;;;0.98;;
83728;SDS011;73707;56.480;-2.840;2024-01-27T08:25:54;4.10;;;1.40;;
83728;SDS011;73707;56.480;-2.840;2024-01-27T08:28:20;4.20;;;1.23;;
83728;SDS011;73707;56.480;-2.840;2024-01-27T08:30:45;6.70;;;1.37;;
83728;SDS011;73707;56.480;-2.840;2024-01-27T08:33:11;7.30;;;1.17;;
83728;SDS011;73707;56.480;-2.840;2024-01-27T08:35:37;2.00;;;1.10;;
83728;SDS011;73707;56.480;-2.840;2024-01-27T08:38:03;3.10;;;1.00;;
83728;SDS011;73707;56.480;-2.840;2024-01-27T08:40:31;2.03;;;0.55;;
83728;SDS011;73707;56.480;-2.840;2024-01-27T08:42:56;5.38;;;1.20;;
83728;SDS011;73707;56.480;-2.840;2024-01-27T08:45:22;2.53;;;0.70;;
83728;SDS011;73707;56.480;-2.840;2024-01-27T08:47:48;2.85;;;0.70;;
83728;SDS011;73707;56.480;-2.840;2024-01-27T08:50:14;1.90;;;0.68;;
83728;SDS011;73707;56.480;-2.840;2024-01-27T08:52:40;4.33;;;0.93;;
83728;SDS011;73707;56.480;-2.840;2024-01-27T08:55:05;4.72;;;1.23;;
83728;SDS011;73707;56.480;-2.840;2024-01-27T08:57:31;2.08;;;0.60;;
83728;SDS011;73707;56.480;-2.840;2024-01-27T08:59:57;1.83;;;0.90;;
83728;SDS011;73707;56.480;-2.840;2024-01-27T09:02:23;3.23;;;0.77;;
83728;SDS011;73707;56.480;-2.840;2024-01-27T09:04:48;1.55;;;0.90;;
83728;SDS011;73707;56.480;-2.840;2024-01-27T09:07:14;1.02;;;0.68;;
83728;SDS011;73707;56.480;-2.840;2024-01-27T09:09:40;1.60;;;0.80;;
83728;SDS011;73707;56.480;-2.840;2024-01-27T09:12:05;2.53;;;1.00;;
83728;SDS011;73707;56.480;-2.840;2024-01-27T09:14:31;2.97;;;0.80;;
83728;SDS011;73707;56.480;-2.840;2024-01-27T09:16:59;1.80;;;0.88;;
83728;SDS011;73707;56.480;-2.840;2024-01-27T09:19:28;4.70;;;0.85;;
83728;SDS011;73707;56.480;-2.840;2024-01-27T09:21:53;5.22;;;1.27;;
83728;SDS011;73707;56.480;-2.840;2024-01-27T09:24:19;4.57;;;0.97;;
83728;SDS011;73707;56.480;-2.840;2024-01-27T09:26:45;4.40;;;0.88;;
83728;SDS011;73707;56.480;-2.840;2024-01-27T09:29:11;3.37;;;1.23;;
83728;SDS011;73707;56.480;-2.840;2024-01-27T09:31:37;2.87;;;1.30;;
83728;SDS011;73707;56.480;-2.840;2024-01-27T09:34:03;3.10;;;1.20;;
83728;SDS011;73707;56.480;-2.840;2024-01-27T09:36:28;4.30;;;0.80;;
83728;SDS011;73707;56.480;-2.840;2024-01-27T09:38:54;7.00;;;1.30;;
83728;SDS011;73707;56.480;-2.840;2024-01-27T09:41:20;2.80;;;0.90;;
83728;SDS011;73707;56.480;-2.840;2024-01-27T09:43:46;4.88;;;0.98;;
83728;SDS011;73707;56.480;-2.840;2024-01-27T09:46:13;2.15;;;0.90;;
83728;SDS011;73707;56.480;-2.840;2024-01-27T09:48:39;2.30;;;1.02;;
83728;SDS011;73707;56.480;-2.840;2024-01-27T09:51:07;2.10;;;1.00;;
83728;SDS011;73707;56.480;-2.840;2024-01-27T09:53:33;4.60;;;1.05;;
83728;SDS011;73707;56.480;-2.840;2024-01-27T09:56:00;2.70;;;1.03;;
83728;SDS011;73707;56.480;-2.840;2024-01-27T09:58:28;3.90;;;1.15;;
83728;SDS011;73707;56.480;-2.840;2024-01-27T10:00:57;4.80;;;1.60;;
83728;SDS011;73707;56.480;-2.840;2024-01-27T10:03:24;3.88;;;0.90;;
83728;SDS011;73707;56.480;-2.840;2024-01-27T10:05:51;5.82;;;1.33;;
83728;SDS011;73707;56.480;-2.840;2024-01-27T10:08:21;4.30;;;1.00;;
83728;SDS011;73707;56.480;-2.840;2024-01-27T10:10:48;5.35;;;0.82;;
83728;SDS011;73707;56.480;-2.840;2024-01-27T10:13:19;5.90;;;1.25;;
83728;SDS011;73707;56.480;-2.840;2024-01-27T10:16:04;6.13;;;1.60;;
83728;SDS011;73707;56.480;-2.840;2024-01-27T10:18:31;4.10;;;1.30;;
83728;SDS011;73707;56.480;-2.840;2024-01-27T10:20:58;2.80;;;1.10;;
83728;SDS011;73707;56.480;-2.840;2024-01-27T10:23:24;5.00;;;1.23;;
83728;SDS011;73707;56.480;-2.840;2024-01-27T10:25:50;8.75;;;1.48;;
83728;SDS011;73707;56.480;-2.840;2024-01-27T10:28:16;5.63;;;1.30;;
83728;SDS011;73707;56.480;-2.840;2024-01-27T10:30:43;4.03;;;1.48;;
83728;SDS011;73707;56.480;-2.840;2024-01-27T10:33:09;7.00;;;1.55;;
83728;SDS011;73707;56.480;-2.840;2024-01-27T10:35:36;4.20;;;1.50;;
83728;SDS011;73707;56.480;-2.840;2024-01-27T10:38:02;4.73;;;1.20;;
83728;SDS011;73707;56.480;-2.840;2024-01-27T10:40:28;5.10;;;1.02;;
83728;SDS011;73707;56.480;-2.840;2024-01-27T10:43:06;3.43;;;1.40;;
83728;SDS011;73707;56.480;-2.840;2024-01-27T10:48:05;4.70;;;1.10;;
83728;SDS011;73707;56.480;-2.840;2024-01-27T10:50:36;3.10;;;1.05;;
83728;SDS011;73707;56.480;-2.840;2024-01-27T10:53:03;2.88;;;0.70;;
83728;SDS011;73707;56.480;-2.840;2024-01-27T10:55:34;4.43;;;1.13;;
83728;SDS011;73707;56.480;-2.840;2024-01-27T10:58:02;4.20;;;1.37;;
83728;SDS011;73707;56.480;-2.840;2024-01-27T11:00:29;2.47;;;1.00;;
83728;SDS011;73707;56.480;-2.840;2024-01-27T11:02:58;4.07;;;1.25;;
83728;SDS011;73707;56.480;-2.840;2024-01-27T11:05:27;7.50;;;0.90;;
83728;SDS011;73707;56.480;-2.840;2024-01-27T11:07:57;3.05;;;0.82;;
83728;SDS011;73707;56.480;-2.840;2024-01-27T11:10:24;6.88;;;1.50;;
83728;SDS011;73707;56.480;-2.840;2024-01-27T11:12:51;2.70;;;0.90;;
83728;SDS011;73707;56.480;-2.840;2024-01-27T11:15:20;2.70;;;1.02;;
83728;SDS011;73707;56.480;-2.840;2024-01-27T11:17:46;2.78;;;0.90;;
83728;SDS011;73707;56.480;-2.840;2024-01-27T11:20:12;2.13;;;0.90;;
83728;SDS011;73707;56.480;-2.840;2024-01-27T11:22:38;4.90;;;1.23;;
83728;SDS011;73707;56.480;-2.840;2024-01-27T11:27:38;4.82;;;0.95;;
83728;SDS011;73707;56.480;-2.840;2024-01-27T11:30:04;3.70;;;1.20;;
83728;SDS011;73707;56.480;-2.840;2024-01-27T11:32:31;5.13;;;1.48;;
83728;SDS011;73707;56.480;-2.840;2024-01-27T11:35:00;3.50;;;1.25;;
83728;SDS011;73707;56.480;-2.840;2024-01-27T11:37:29;5.20;;;1.43;;
83728;SDS011;73707;56.480;-2.840;2024-01-27T11:40:05;2.05;;;0.75;;
83728;SDS011;73707;56.480;-2.840;2024-01-27T11:42:31;3.95;;;1.30;;
83728;SDS011;73707;56.480;-2.840;2024-01-27T11:44:56;3.10;;;1.30;;
83728;SDS011;73707;56.480;-2.840;2024-01-27T11:47:22;2.63;;;1.13;;
83728;SDS011;73707;56.480;-2.840;2024-01-27T11:49:52;5.20;;;1.50;;
83728;SDS011;73707;56.480;-2.840;2024-01-27T11:52:18;3.83;;;1.60;;
83728;SDS011;73707;56.480;-2.840;2024-01-27T11:54:45;5.10;;;1.40;;
83728;SDS011;73707;56.480;-2.840;2024-01-27T11:57:10;6.97;;;1.95;;
83728;SDS011;73707;56.480;-2.840;2024-01-27T11:59:36;5.30;;;1.33;;
83728;SDS011;73707;56.480;-2.840;2024-01-27T12:02:02;5.87;;;1.40;;
83728;SDS011;73707;56.480;-2.840;2024-01-27T12:04:28;4.55;;;1.10;;
83728;SDS011;73707;56.480;-2.840;2024-01-27T12:06:54;3.75;;;1.33;;
83728;SDS011;73707;56.480;-2.840;2024-01-27T12:09:20;3.00;;;1.30;;
83728;SDS011;73707;56.480;-2.840;2024-01-27T12:11:47;4.70;;;1.65;;
83728;SDS011;73707;56.480;-2.840;2024-01-27T12:14:13;4.15;;;1.48;;
83728;SDS011;73707;56.480;-2.840;2024-01-27T12:16:39;5.60;;;1.40;;
83728;SDS011;73707;56.480;-2.840;2024-01-27T12:19:05;4.60;;;1.73;;
83728;SDS011;73707;56.480;-2.840;2024-01-27T12:21:31;5.60;;;1.42;;
83728;SDS011;73707;56.480;-2.840;2024-01-27T12:23:57;2.70;;;1.30;;
83728;SDS011;73707;56.480;-2.840;2024-01-27T12:26:27;5.50;;;1.50;;
83728;SDS011;73707;56.480;-2.840;2024-01-27T12:28:55;6.20;;;1.80;;
83728;SDS011;73707;56.480;-2.840;2024-01-27T12:31:22;4.35;;;1.70;;
83728;SDS011;73707;56.480;-2.840;2024-01-27T12:33:49;4.45;;;1.52;;
83728;SDS011;73707;56.480;-2.840;2024-01-27T12:36:19;3.83;;;1.10;;
83728;SDS011;73707;56.480;-2.840;2024-01-27T12:38:47;3.78;;;1.05;;
83728;SDS011;73707;56.480;-2.840;2024-01-27T12:41:17;5.10;;;1.30;;
83728;SDS011;73707;56.480;-2.840;2024-01-27T12:43:43;2.80;;;1.07;;
83728;SDS011;73707;56.480;-2.840;2024-01-27T12:46:08;3.83;;;1.37;;
83728;SDS011;73707;56.480;-2.840;2024-01-27T12:48:36;5.18;;;1.20;;
83728;SDS011;73707;56.480;-2.840;2024-01-27T12:51:01;2.80;;;1.08;;
83728;SDS011;73707;56.480;-2.840;2024-01-27T12:53:27;4.93;;;1.27;;
83728;SDS011;73707;56.480;-2.840;2024-01-27T12:55:53;4.60;;;1.42;;
83728;SDS011;73707;56.480;-2.840;2024-01-27T12:58:19;6.18;;;1.40;;
83728;SDS011;73707;56.480;-2.840;2024-01-27T13:00:44;3.20;;;1.33;;
83728;SDS011;73707;56.480;-2.840;2024-01-27T13:03:10;2.53;;;1.33;;
83728;SDS011;73707;56.480;-2.840;2024-01-27T13:05:35;6.00;;;1.80;;
83728;SDS011;73707;56.480;-2.840;2024-01-27T13:08:03;4.50;;;1.25;;
83728;SDS011;73707;56.480;-2.840;2024-01-27T13:10:29;6.15;;;1.58;;
83728;SDS011;73707;56.480;-2.840;2024-01-27T13:12:55;3.83;;;1.43;;
83728;SDS011;73707;56.480;-2.840;2024-01-27T13:15:21;7.43;;;1.80;;
83728;SDS011;73707;56.480;-2.840;2024-01-27T13:17:48;4.00;;;1.63;;
83728;SDS011;73707;56.480;-2.840;2024-01-27T13:20:14;5.83;;;1.80;;
83728;SDS011;73707;56.480;-2.840;2024-01-27T13:22:40;5.28;;;1.20;;
83728;SDS011;73707;56.480;-2.840;2024-01-27T13:25:06;5.00;;;1.50;;
83728;SDS011;73707;56.480;-2.840;2024-01-27T13:27:31;5.30;;;1.48;;
83728;SDS011;73707;56.480;-2.840;2024-01-27T13:29:59;5.32;;;1.50;;
83728;SDS011;73707;56.480;-2.840;2024-01-27T13:32:25;6.87;;;1.93;;
83728;SDS011;73707;56.480;-2.840;2024-01-27T13:34:51;5.67;;;1.90;;
83728;SDS011;73707;56.480;-2.840;2024-01-27T13:37:17;5.78;;;1.60;;
83728;SDS011;73707;56.480;-2.840;2024-01-27T13:39:43;4.30;;;1.27;;
83728;SDS011;73707;56.480;-2.840;2024-01-27T13:42:10;4.55;;;1.05;;
83728;SDS011;73707;56.480;-2.840;2024-01-27T13:44:36;5.20;;;1.60;;
83728;SDS011;73707;56.480;-2.840;2024-01-27T13:47:02;6.17;;;1.43;;
83728;SDS011;73707;56.480;-2.840;2024-01-27T13:49:29;5.10;;;2.10;;
83728;SDS011;73707;56.480;-2.840;2024-01-27T13:51:58;6.20;;;1.83;;
83728;SDS011;73707;56.480;-2.840;2024-01-27T13:54:24;4.80;;;1.40;;
83728;SDS011;73707;56.480;-2.840;2024-01-27T13:56:50;6.03;;;2.27;;
83728;SDS011;73707;56.480;-2.840;2024-01-27T13:59:16;3.63;;;1.10;;
83728;SDS011;73707;56.480;-2.840;2024-01-27T14:01:42;5.93;;;2.00;;
83728;SDS011;73707;56.480;-2.840;2024-01-27T14:04:07;2.55;;;1.45;;
83728;SDS011;73707;56.480;-2.840;2024-01-27T14:06:33;3.80;;;1.47;;
83728;SDS011;73707;56.480;-2.840;2024-01-27T14:08:59;6.50;;;1.95;;
83728;SDS011;73707;56.480;-2.840;2024-01-27T14:11:27;5.00;;;1.50;;
83728;SDS011;73707;56.480;-2.840;2024-01-27T14:13:53;4.60;;;1.58;;
83728;SDS011;73707;56.480;-2.840;2024-01-27T14:16:19;3.97;;;1.60;;
83728;SDS011;73707;56.480;-2.840;2024-01-27T14:18:45;5.97;;;1.93;;
83728;SDS011;73707;56.480;-2.840;2024-01-27T14:21:11;5.82;;;1.92;;
83728;SDS011;73707;56.480;-2.840;2024-01-27T14:23:36;6.97;;;1.65;;
83728;SDS011;73707;56.480;-2.840;2024-01-27T14:26:05;9.68;;;1.90;;
83728;SDS011;73707;56.480;-2.840;2024-01-27T14:28:33;3.90;;;1.15;;
83728;SDS011;73707;56.480;-2.840;2024-01-27T14:31:00;6.45;;;1.48;;
83728;SDS011;73707;56.480;-2.840;2024-01-27T14:33:26;6.60;;;1.55;;